Interior, SD (57750)

4:04 AM MDT on July 23, 2014 (GMT -0600)
RAWS PINNACLES SD US (MPINS2) Elev 3080 ft | 43.88 °N, 102.24 °W | Change Station

Current weather conditions updated 44 minutes ago

Overcast
Overcast
69 °F
Feels Like 69 °F
N
27
Wind Variable Wind from SSE
Gusts 47.0 mph

Today is forecast to be Warmer than yesterday.

Today
High -- | Low -- °F
--% Chance of Precip.
Yesterday
High -- | Low -- °F
Precip. -- in
5:27 AM 8:20 PM
Waning Crescent, 11% visible
Pressure 30.11 in
Visibility 10.0 miles
Clouds Clear
Dew Point 55 °F
Humidity 62%
Rainfall 0.20 in
Snow Depth Not available.
UV 0 out of 12
Pollen 6.10 out of 12
Air Quality Not available.
Flu Activity Not available.
METAR KPHP 230955Z AUTO 09009KT 10SM CLR 21/15 A3018 RMK AO2 RAB00E33 SLP196 P0000 T02110150

More Conditions Fewer Conditions

Pressure 30.11 in
Visibility 10.0 miles
Clouds Clear
Dew Point 55 °F
Humidity 62%
Rainfall 0.20 in
Snow Depth Not available.
UV 0 out of 12
Pollen 6.10 out of 12
Air Quality Not available.
Flu Activity Not available.
METAR KPHP 230955Z AUTO 09009KT 10SM CLR 21/15 A3018 RMK AO2 RAB00E33 SLP196 P0000 T02110150

More Conditions Fewer Conditions

10-Day Weather Forecast

Almanac

Astronomy

Jul. 23, 2014 Rise Set
Actual Time 5:27 AM MDT 8:20 PM MDT
Civil Twilight 4:53 AM MDT 8:54 PM MDT
Nautical Twilight 4:10 AM MDT 9:37 PM MDT
Astronomical Twilight 3:19 AM MDT 10:27 PM MDT
Moon 2:48 AM MDT 5:50 PM MDT
Length of Visible Light 16h 00m
Length of Day
14h 53m
Tomorrow will be 1m 59s shorter.
Waning Crescent, 11% of the Moon is Illuminated
Today
Waning Crescent
Jul 26
New
Aug 3
First Quarter
Aug 10
Full
Aug 17
Last Quarter

Today's Extremes

State Highs State Lows

Community

WunderPhotos

Upload Photos

1,736,535 photos uploaded!

Nearby

Snow Depth

Station Depth Elevation
Blind Park 1 in 6890 ft

Earthquake Activity

City Distance Mag. Time & Date
No recent earthquake activity has been reported nearby.
Minimum magnitude displayed is 2.5.

Coastal Water Temperatures

Place Temperature
No Stations Reporting

Nearby Weather Stations

Station Location Temp. Dew Point Humidity Wind Precip. Elev Updated Type
RAWS PINNACLES SD, Wall, SD 69 °F 55 °F 62% SSE  at  27 mph 0.01 in / hr 3080 ft 3:20 AM MDT MADIS

Show More Stations Show Fewer Stations